Time;durP1;ratioP1;P1;durP2;ratioP2;P2;SDS_P1;SDS_P2;PMS_P1;PMS_P2;Temp;Humidity;BMP_temperature;BMP_pressure;BME280_temperature;BME280_humidity;BME280_pressure;Samples;Min_cycle;Max_cycle;Signal;HPM_P1;HPM_P2
2023/11/29 00:00:07;;;;;;;2.77;2.57;;;;;;;;;;5048506;28;20221;-87
2023/11/29 00:02:34;;;;;;;2.60;2.27;;;;;;;;;;5052800;28;20692;-87
2023/11/29 00:05:03;;;;;;;2.50;2.30;;;;;;;;;;5049991;28;20214;-89
2023/11/29 00:07:30;;;;;;;2.83;2.63;;;;;;;;;;5033357;28;20206;-87
2023/11/29 00:10:00;;;;;;;2.60;2.40;;;;;;;;;;5032832;28;20256;-89
2023/11/29 00:12:27;;;;;;;2.53;2.30;;;;;;;;;;5043931;28;20300;-87
2023/11/29 00:14:54;;;;;;;2.57;2.37;;;;;;;;;;5034471;28;20206;-88
2023/11/29 00:17:21;;;;;;;2.50;2.30;;;;;;;;;;5043747;28;20202;-86
2023/11/29 00:19:48;;;;;;;2.90;2.10;;;;;;;;;;5038568;28;20212;-86
2023/11/29 00:22:15;;;;;;;2.47;2.27;;;;;;;;;;5040705;28;20229;-87
2023/11/29 00:24:46;;;;;;;2.50;1.90;;;;;;;;;;5051000;28;20208;-88
2023/11/29 00:27:14;;;;;;;2.30;2.10;;;;;;;;;;5039868;28;20229;-88
2023/11/29 00:29:41;;;;;;;2.57;2.37;;;;;;;;;;5045769;28;20210;-88
2023/11/29 00:32:10;;;;;;;2.30;2.13;;;;;;;;;;5046293;28;20286;-88
2023/11/29 00:34:36;;;;;;;2.17;2.00;;;;;;;;;;5052126;28;20289;-87
2023/11/29 00:37:04;;;;;;;2.10;1.90;;;;;;;;;;5051899;28;20255;-88
2023/11/29 00:39:30;;;;;;;2.10;2.00;;;;;;;;;;5026225;28;20213;-86
2023/11/29 00:42:00;;;;;;;2.30;1.87;;;;;;;;;;5052170;28;20765;-88
2023/11/29 00:44:29;;;;;;;2.60;2.40;;;;;;;;;;5012218;28;20204;-89
2023/11/29 00:46:55;;;;;;;1.93;1.73;;;;;;;;;;5040285;28;20214;-88
2023/11/29 00:49:22;;;;;;;2.00;1.53;;;;;;;;;;5040586;28;20266;-87
2023/11/29 00:51:49;;;;;;;1.77;1.67;;;;;;;;;;5052077;28;20596;-87
2023/11/29 00:54:16;;;;;;;1.77;1.67;;;;;;;;;;5043894;28;20294;-87
2023/11/29 00:56:43;;;;;;;1.40;1.27;;;;;;;;;;5045305;28;20217;-86
2023/11/29 00:59:10;;;;;;;1.97;1.70;;;;;;;;;;5031629;28;20639;-82
2023/11/29 01:01:38;;;;;;;1.13;1.03;;;;;;;;;;5032991;28;20225;-85
2023/11/29 01:04:05;;;;;;;1.10;1.00;;;;;;;;;;5043187;28;20218;-85
2023/11/29 01:06:33;;;;;;;1.50;1.40;;;;;;;;;;5046667;28;20209;-85
2023/11/29 01:09:00;;;;;;;1.50;1.30;;;;;;;;;;5041539;28;20222;-86
2023/11/29 01:11:26;;;;;;;1.70;1.47;;;;;;;;;;5033663;28;20684;-89
2023/11/29 01:13:53;;;;;;;1.87;1.70;;;;;;;;;;5051815;28;20202;-85
2023/11/29 01:16:21;;;;;;;2.00;1.80;;;;;;;;;;5051376;28;20209;-87
2023/11/29 01:18:49;;;;;;;1.93;1.83;;;;;;;;;;5051387;28;20217;-88
2023/11/29 01:21:16;;;;;;;2.00;1.77;;;;;;;;;;5038017;28;20235;-87
2023/11/29 01:23:43;;;;;;;2.30;2.10;;;;;;;;;;5041294;28;20218;-87
2023/11/29 01:26:12;;;;;;;2.30;2.07;;;;;;;;;;5049090;28;20206;-87
2023/11/29 01:28:39;;;;;;;2.17;2.03;;;;;;;;;;5040282;28;20220;-87
2023/11/29 01:31:06;;;;;;;1.70;1.60;;;;;;;;;;5050042;28;20210;-87
2023/11/29 01:33:33;;;;;;;2.10;1.90;;;;;;;;;;5040148;28;20245;-87
2023/11/29 01:36:08;;;;;;;2.33;2.13;;;;;;;;;;5044852;28;20207;-87
2023/11/29 01:38:34;;;;;;;2.17;1.80;;;;;;;;;;5044134;28;20240;-88
2023/11/29 01:41:02;;;;;;;1.67;1.57;;;;;;;;;;5037552;28;20240;-89
2023/11/29 01:43:29;;;;;;;2.03;1.80;;;;;;;;;;5038026;28;20214;-87
2023/11/29 01:45:57;;;;;;;1.80;1.63;;;;;;;;;;5018621;28;20217;-87
2023/11/29 01:48:25;;;;;;;4.50;2.00;;;;;;;;;;5031479;28;20686;-88
2023/11/29 01:50:53;;;;;;;1.90;1.80;;;;;;;;;;5051349;28;20304;-87
2023/11/29 01:53:24;;;;;;;1.93;1.83;;;;;;;;;;5050690;28;20715;-86
2023/11/29 01:55:52;;;;;;;2.20;2.00;;;;;;;;;;5043247;28;20202;-87
2023/11/29 01:58:20;;;;;;;1.87;1.60;;;;;;;;;;5032939;28;20215;-87
2023/11/29 02:00:46;;;;;;;1.53;1.43;;;;;;;;;;5050689;28;20229;-86
2023/11/29 02:03:14;;;;;;;2.40;1.87;;;;;;;;;;5048739;28;20237;-87
2023/11/29 02:05:41;;;;;;;3.73;2.27;;;;;;;;;;5040036;28;20268;-86
2023/11/29 02:08:08;;;;;;;3.03;2.10;;;;;;;;;;5051069;28;20217;-86
2023/11/29 02:10:37;;;;;;;6.17;2.30;;;;;;;;;;5042025;28;20241;-86
2023/11/29 02:13:04;;;;;;;4.33;2.50;;;;;;;;;;5033289;28;20207;-86
2023/11/29 02:15:31;;;;;;;4.87;2.70;;;;;;;;;;5041846;28;20211;-86
2023/11/29 02:17:58;;;;;;;2.53;2.33;;;;;;;;;;5046507;28;20297;-86
2023/11/29 02:20:26;;;;;;;2.97;2.67;;;;;;;;;;5050560;28;20618;-87
2023/11/29 02:23:00;;;;;;;7.30;3.30;;;;;;;;;;5038135;28;20210;-85
2023/11/29 02:25:28;;;;;;;4.93;2.73;;;;;;;;;;5045246;28;20704;-86
2023/11/29 02:27:55;;;;;;;4.80;3.93;;;;;;;;;;5036774;28;20218;-87
2023/11/29 02:30:22;;;;;;;7.03;5.17;;;;;;;;;;5034701;28;20613;-87
2023/11/29 02:32:49;;;;;;;53.13;32.17;;;;;;;;;;5047118;28;20207;-87
2023/11/29 02:35:16;;;;;;;18.03;12.60;;;;;;;;;;5046647;28;20209;-87
2023/11/29 02:37:43;;;;;;;14.20;11.33;;;;;;;;;;5041180;28;20229;-87
2023/11/29 02:40:11;;;;;;;29.50;24.13;;;;;;;;;;5053890;28;20700;-88
2023/11/29 02:42:39;;;;;;;23.67;19.47;;;;;;;;;;5054336;28;20221;-87
2023/11/29 02:45:07;;;;;;;13.60;10.57;;;;;;;;;;5041256;28;20218;-87
2023/11/29 02:47:34;;;;;;;5.90;4.73;;;;;;;;;;5027389;28;20710;-87
2023/11/29 02:50:01;;;;;;;3.87;3.17;;;;;;;;;;5040680;28;20273;-87
2023/11/29 02:52:28;;;;;;;4.20;3.20;;;;;;;;;;5041504;28;20652;-87
2023/11/29 02:54:55;;;;;;;9.90;8.97;;;;;;;;;;5053718;28;20217;-88
2023/11/29 02:57:22;;;;;;;3.33;2.33;;;;;;;;;;5032981;28;20218;-87
2023/11/29 02:59:50;;;;;;;2.67;2.03;;;;;;;;;;5048343;28;20218;-87
2023/11/29 03:02:17;;;;;;;2.47;1.90;;;;;;;;;;5053512;28;20228;-87
2023/11/29 03:04:44;;;;;;;1.73;1.63;;;;;;;;;;5040641;28;20248;-87
2023/11/29 03:07:11;;;;;;;2.43;2.13;;;;;;;;;;5053875;28;20212;-87
2023/11/29 03:09:38;;;;;;;2.13;2.03;;;;;;;;;;5052049;28;20217;-87
2023/11/29 03:12:08;;;;;;;2.03;1.73;;;;;;;;;;5042228;28;20210;-87
2023/11/29 03:14:35;;;;;;;2.37;1.90;;;;;;;;;;5051192;28;20214;-89
2023/11/29 03:17:03;;;;;;;1.80;1.70;;;;;;;;;;5043371;28;20209;-89
2023/11/29 03:19:30;;;;;;;1.97;1.87;;;;;;;;;;5053998;28;20217;-89
2023/11/29 03:21:57;;;;;;;2.70;2.50;;;;;;;;;;5054127;28;20715;-88
2023/11/29 03:24:42;;;;;;;5.20;4.70;;;;;;;;;;5038184;28;20218;-87
2023/11/29 03:27:09;;;;;;;2.77;2.50;;;;;;;;;;5046076;28;20213;-88
2023/11/29 03:29:36;;;;;;;2.37;2.00;;;;;;;;;;5040174;28;20220;-88
2023/11/29 03:32:05;;;;;;;1.90;1.80;;;;;;;;;;5040437;28;20203;-87
2023/11/29 03:34:31;;;;;;;1.80;1.70;;;;;;;;;;5051846;28;20217;-88
2023/11/29 03:36:59;;;;;;;1.67;1.57;;;;;;;;;;5040711;28;20231;-87
2023/11/29 03:39:26;;;;;;;2.17;1.67;;;;;;;;;;5033217;28;20210;-87
2023/11/29 03:41:53;;;;;;;1.40;1.30;;;;;;;;;;5046335;28;20234;-88
2023/11/29 03:44:20;;;;;;;1.50;1.40;;;;;;;;;;5033268;28;20207;-87
2023/11/29 03:46:47;;;;;;;2.43;1.90;;;;;;;;;;5047204;28;20244;-87
2023/11/29 03:49:15;;;;;;;1.50;1.40;;;;;;;;;;5035735;28;20210;-88
2023/11/29 03:51:42;;;;;;;1.37;1.27;;;;;;;;;;5033425;28;20272;-87
2023/11/29 03:54:11;;;;;;;1.10;1.10;;;;;;;;;;5038195;28;20673;-87
2023/11/29 03:56:38;;;;;;;1.40;1.30;;;;;;;;;;5053038;28;20210;-88
2023/11/29 03:59:05;;;;;;;1.40;1.30;;;;;;;;;;5051300;28;20213;-92
2023/11/29 04:01:33;;;;;;;1.30;1.20;;;;;;;;;;5041478;28;20233;-87
2023/11/29 04:03:59;;;;;;;1.40;1.30;;;;;;;;;;5050891;28;20233;-88
2023/11/29 04:06:28;;;;;;;1.30;1.20;;;;;;;;;;5042200;28;20217;-88
2023/11/29 04:08:56;;;;;;;1.50;1.40;;;;;;;;;;5052744;28;20214;-88
2023/11/29 04:11:23;;;;;;;4.67;1.80;;;;;;;;;;5043115;28;20202;-89
2023/11/29 04:13:50;;;;;;;13.30;11.80;;;;;;;;;;5035964;28;20213;-89
2023/11/29 04:16:21;;;;;;;7.30;6.43;;;;;;;;;;5053034;28;20213;-88
2023/11/29 04:18:48;;;;;;;11.17;9.93;;;;;;;;;;5048515;28;20705;-88
2023/11/29 04:21:23;;;;;;;13.07;11.77;;;;;;;;;;5043650;28;20218;-88
2023/11/29 04:23:52;;;;;;;8.90;7.80;;;;;;;;;;5047468;28;20202;-89
2023/11/29 04:26:24;;;;;;;8.17;7.47;;;;;;;;;;5033120;28;20209;-91
2023/11/29 04:28:51;;;;;;;6.07;5.47;;;;;;;;;;5030708;28;20215;-90
2023/11/29 04:31:18;;;;;;;3.60;3.30;;;;;;;;;;5045253;28;20220;-91
2023/11/29 04:33:45;;;;;;;4.30;3.10;;;;;;;;;;5045442;28;21952;-90
2023/11/29 04:36:12;;;;;;;3.63;3.30;;;;;;;;;;5052834;28;20209;-90
2023/11/29 04:38:39;;;;;;;17.90;12.77;;;;;;;;;;5049826;28;20234;-90
2023/11/29 04:41:07;;;;;;;7.97;6.80;;;;;;;;;;5025341;28;20202;-88
2023/11/29 04:43:34;;;;;;;11.13;8.90;;;;;;;;;;5036271;28;20207;-88
2023/11/29 04:46:01;;;;;;;7.30;6.57;;;;;;;;;;5047111;28;20206;-89
2023/11/29 04:48:28;;;;;;;4.50;4.10;;;;;;;;;;5044190;28;20265;-87
2023/11/29 04:50:55;;;;;;;5.77;4.53;;;;;;;;;;5045783;28;20577;-89
2023/11/29 04:53:21;;;;;;;8.80;6.50;;;;;;;;;;5040921;28;20684;-88
2023/11/29 04:55:52;;;;;;;8.80;6.27;;;;;;;;;;5052030;28;20228;-87
2023/11/29 04:58:20;;;;;;;5.10;4.43;;;;;;;;;;5052836;28;20205;-88
2023/11/29 05:00:47;;;;;;;79.60;41.07;;;;;;;;;;5051820;28;20300;-88
2023/11/29 05:03:14;;;;;;;91.17;55.33;;;;;;;;;;5041963;28;20234;-88
2023/11/29 05:05:41;;;;;;;20.20;15.73;;;;;;;;;;5048971;28;20225;-88
2023/11/29 05:08:09;;;;;;;24.07;15.50;;;;;;;;;;5052398;28;20217;-90
2023/11/29 05:10:36;;;;;;;22.80;15.97;;;;;;;;;;5034898;28;20744;-89
2023/11/29 05:13:03;;;;;;;16.07;12.50;;;;;;;;;;5032880;28;20665;-90
2023/11/29 05:15:31;;;;;;;15.97;13.70;;;;;;;;;;5036833;28;20210;-88
2023/11/29 05:18:01;;;;;;;7.73;6.57;;;;;;;;;;5040652;28;20225;-88
2023/11/29 05:20:28;;;;;;;19.70;18.00;;;;;;;;;;5051276;28;20266;-89
2023/11/29 05:22:55;;;;;;;6.93;6.23;;;;;;;;;;5039769;28;20233;-90
2023/11/29 05:25:22;;;;;;;5.43;4.80;;;;;;;;;;5037920;28;20202;-88
2023/11/29 05:27:49;;;;;;;8.50;5.77;;;;;;;;;;5052152;28;20205;-88
2023/11/29 05:30:16;;;;;;;4.87;4.47;;;;;;;;;;5045784;28;20205;-89
2023/11/29 05:32:46;;;;;;;4.30;4.00;;;;;;;;;;5032298;28;20229;-89
2023/11/29 05:35:12;;;;;;;3.13;2.93;;;;;;;;;;5043496;28;20217;-90
2023/11/29 05:37:39;;;;;;;2.50;2.30;;;;;;;;;;5051678;28;20233;-89
2023/11/29 05:40:08;;;;;;;2.47;2.27;;;;;;;;;;5051493;28;20212;-89
2023/11/29 05:42:35;;;;;;;6.50;3.60;;;;;;;;;;5051437;28;20234;-89
2023/11/29 05:45:03;;;;;;;29.97;23.60;;;;;;;;;;5051566;28;20206;-89
2023/11/29 05:47:30;;;;;;;17.30;15.50;;;;;;;;;;5046090;28;20236;-89
2023/11/29 05:50:01;;;;;;;10.77;9.67;;;;;;;;;;5044232;28;20206;-89
2023/11/29 05:52:28;;;;;;;13.73;10.43;;;;;;;;;;5045604;28;20222;-89
2023/11/29 05:54:55;;;;;;;21.37;18.43;;;;;;;;;;5044695;28;20217;-89
2023/11/29 05:57:21;;;;;;;36.37;30.20;;;;;;;;;;5041812;28;20206;-90
2023/11/29 05:59:48;;;;;;;13.77;12.30;;;;;;;;;;5054822;28;20206;-89
2023/11/29 06:02:15;;;;;;;9.03;8.13;;;;;;;;;;5042943;28;20244;-90
2023/11/29 06:04:42;;;;;;;8.03;4.63;;;;;;;;;;5042207;28;20225;-90
2023/11/29 06:07:11;;;;;;;4.77;3.63;;;;;;;;;;5055937;28;20263;-90
2023/11/29 06:09:39;;;;;;;3.00;2.63;;;;;;;;;;5054927;28;20210;-89
2023/11/29 06:12:07;;;;;;;3.23;2.97;;;;;;;;;;5055560;28;20259;-90
2023/11/29 06:14:34;;;;;;;3.30;2.87;;;;;;;;;;5042343;28;20280;-90
2023/11/29 06:17:01;;;;;;;4.87;3.70;;;;;;;;;;5046617;28;20216;-89
2023/11/29 06:19:27;;;;;;;2.73;2.53;;;;;;;;;;5048700;28;20217;-89
2023/11/29 06:21:55;;;;;;;2.70;2.50;;;;;;;;;;5044762;28;20257;-88
2023/11/29 06:24:24;;;;;;;2.40;2.20;;;;;;;;;;5054879;28;20218;-89
2023/11/29 06:26:51;;;;;;;2.63;2.27;;;;;;;;;;5055432;28;20293;-89
2023/11/29 06:29:18;;;;;;;2.70;2.50;;;;;;;;;;5055144;28;20574;-89
2023/11/29 06:31:44;;;;;;;2.40;2.20;;;;;;;;;;5045135;28;20226;-89
2023/11/29 06:34:11;;;;;;;1.87;1.77;;;;;;;;;;5048573;28;20207;-88
2023/11/29 06:36:39;;;;;;;6.27;5.50;;;;;;;;;;5044991;28;20206;-88
2023/11/29 06:39:09;;;;;;;6.97;6.27;;;;;;;;;;5054491;28;20297;-89
2023/11/29 06:41:37;;;;;;;7.07;6.37;;;;;;;;;;5055385;28;20233;-89
2023/11/29 06:44:05;;;;;;;9.50;8.07;;;;;;;;;;5049786;28;20225;-89
2023/11/29 06:46:32;;;;;;;8.37;7.37;;;;;;;;;;5045730;28;20229;-89
2023/11/29 06:48:59;;;;;;;8.47;7.03;;;;;;;;;;5041467;28;20220;-89
2023/11/29 06:51:25;;;;;;;6.20;5.50;;;;;;;;;;5043176;28;20214;-89
2023/11/29 06:53:52;;;;;;;7.60;5.80;;;;;;;;;;5052458;28;20208;-88
2023/11/29 06:56:19;;;;;;;7.60;6.80;;;;;;;;;;5042670;28;20272;-88
2023/11/29 06:58:47;;;;;;;6.70;6.10;;;;;;;;;;5047598;28;20206;-88
2023/11/29 07:01:14;;;;;;;4.97;4.23;;;;;;;;;;5046282;28;20213;-89
2023/11/29 07:03:41;;;;;;;7.37;6.30;;;;;;;;;;5048373;28;20222;-88
2023/11/29 07:06:09;;;;;;;10.30;8.00;;;;;;;;;;5046640;28;20233;-87
2023/11/29 07:08:36;;;;;;;11.37;7.63;;;;;;;;;;5048266;28;20225;-88
2023/11/29 07:11:04;;;;;;;9.93;7.73;;;;;;;;;;5034340;28;20218;-88
2023/11/29 07:13:31;;;;;;;8.93;6.67;;;;;;;;;;5053678;28;20661;-88
2023/11/29 07:16:01;;;;;;;13.13;10.37;;;;;;;;;;5053929;28;20213;-90
2023/11/29 07:18:28;;;;;;;10.53;9.50;;;;;;;;;;5041402;28;20220;-88
2023/11/29 07:20:56;;;;;;;4.40;4.10;;;;;;;;;;5053933;28;20210;-89
2023/11/29 07:23:23;;;;;;;2.80;2.57;;;;;;;;;;5046612;28;20237;-89
2023/11/29 07:25:50;;;;;;;2.63;2.40;;;;;;;;;;5035420;28;20638;-89
2023/11/29 07:28:17;;;;;;;2.63;2.00;;;;;;;;;;5054051;28;20198;-88
2023/11/29 07:30:44;;;;;;;2.63;2.20;;;;;;;;;;5040494;28;20203;-88
2023/11/29 07:33:15;;;;;;;3.03;2.73;;;;;;;;;;5053808;28;20212;-87
2023/11/29 07:35:42;;;;;;;1.40;1.30;;;;;;;;;;5051402;28;20590;-88
2023/11/29 07:38:11;;;;;;;2.00;1.60;;;;;;;;;;5042935;28;20238;-87
2023/11/29 07:40:38;;;;;;;1.73;1.60;;;;;;;;;;5050756;28;20207;-89
2023/11/29 07:43:05;;;;;;;2.13;2.00;;;;;;;;;;5043314;28;20752;-88
2023/11/29 07:45:31;;;;;;;2.00;1.90;;;;;;;;;;5039879;28;20210;-88
2023/11/29 07:48:01;;;;;;;1.30;1.20;;;;;;;;;;5053502;28;20217;-88
2023/11/29 07:50:30;;;;;;;1.57;1.47;;;;;;;;;;5053369;28;20206;-89
2023/11/29 07:52:57;;;;;;;3.13;2.90;;;;;;;;;;5042537;28;20214;-88
2023/11/29 07:55:24;;;;;;;2.17;2.07;;;;;;;;;;5046463;28;20206;-88
2023/11/29 07:57:50;;;;;;;2.27;2.07;;;;;;;;;;5044309;28;20213;-89
2023/11/29 08:00:18;;;;;;;1.90;1.80;;;;;;;;;;5048615;28;20669;-89
2023/11/29 08:02:45;;;;;;;1.83;1.70;;;;;;;;;;5044019;28;20229;-87
2023/11/29 08:05:12;;;;;;;2.10;1.90;;;;;;;;;;5048382;28;20657;-86
2023/11/29 08:07:40;;;;;;;2.37;2.17;;;;;;;;;;5044590;28;20560;-88
2023/11/29 08:10:08;;;;;;;1.87;1.77;;;;;;;;;;5052956;28;20214;-87
2023/11/29 08:12:35;;;;;;;3.60;2.10;;;;;;;;;;5053169;28;20240;-88
2023/11/29 08:15:02;;;;;;;2.00;1.80;;;;;;;;;;5039401;28;20214;-90
2023/11/29 08:17:29;;;;;;;2.60;2.40;;;;;;;;;;5052866;28;20221;-89
2023/11/29 08:19:58;;;;;;;1.80;1.70;;;;;;;;;;5052182;28;20206;-89
2023/11/29 08:22:25;;;;;;;2.13;1.70;;;;;;;;;;5039768;28;20237;-89
2023/11/29 08:24:53;;;;;;;2.37;2.17;;;;;;;;;;5052347;28;20214;-88
2023/11/29 08:27:21;;;;;;;2.53;2.30;;;;;;;;;;5053042;28;20213;-88
2023/11/29 08:29:48;;;;;;;2.13;1.93;;;;;;;;;;5053005;28;20684;-89
2023/11/29 08:32:15;;;;;;;1.87;1.60;;;;;;;;;;5052086;28;20641;-88
2023/11/29 08:34:42;;;;;;;1.83;1.73;;;;;;;;;;5040471;28;20206;-89
2023/11/29 08:37:09;;;;;;;1.70;1.60;;;;;;;;;;5051562;28;20280;-89
2023/11/29 08:39:36;;;;;;;2.23;1.70;;;;;;;;;;5040677;28;20213;-87
2023/11/29 08:42:05;;;;;;;1.93;1.83;;;;;;;;;;5052404;28;20205;-88
2023/11/29 08:44:32;;;;;;;1.60;1.50;;;;;;;;;;5052029;28;20279;-88
2023/11/29 08:46:59;;;;;;;1.60;1.50;;;;;;;;;;5036238;28;20701;-87
2023/11/29 08:49:26;;;;;;;1.70;1.60;;;;;;;;;;5041178;28;20205;-88
2023/11/29 08:51:53;;;;;;;1.80;1.70;;;;;;;;;;5052228;28;20673;-88
2023/11/29 08:54:20;;;;;;;1.70;1.60;;;;;;;;;;5051847;28;20206;-88
2023/11/29 08:56:47;;;;;;;1.70;1.60;;;;;;;;;;5049331;28;20211;-89
2023/11/29 08:59:17;;;;;;;1.93;1.77;;;;;;;;;;5041563;28;20581;-88
2023/11/29 09:01:44;;;;;;;1.50;1.40;;;;;;;;;;5035942;28;20206;-87
2023/11/29 09:04:13;;;;;;;1.60;1.50;;;;;;;;;;5041900;28;20662;-87
2023/11/29 09:06:40;;;;;;;2.03;1.93;;;;;;;;;;5038368;28;20206;-88
2023/11/29 09:09:08;;;;;;;1.60;1.50;;;;;;;;;;5051832;28;20221;-90
2023/11/29 09:11:35;;;;;;;1.43;1.33;;;;;;;;;;5051990;28;20288;-88
2023/11/29 09:14:02;;;;;;;1.43;1.30;;;;;;;;;;5041360;28;20776;-87
2023/11/29 09:16:30;;;;;;;1.47;1.37;;;;;;;;;;5036032;28;20213;-88
2023/11/29 09:18:58;;;;;;;1.30;1.20;;;;;;;;;;5051698;28;20692;-87
2023/11/29 09:21:25;;;;;;;2.30;1.03;;;;;;;;;;5038577;28;20207;-87
2023/11/29 09:23:53;;;;;;;1.57;1.40;;;;;;;;;;5039532;28;20241;-88
2023/11/29 09:26:20;;;;;;;1.10;1.10;;;;;;;;;;5037153;28;20200;-89
2023/11/29 09:28:47;;;;;;;1.00;1.00;;;;;;;;;;5051293;28;20210;-86
2023/11/29 09:31:14;;;;;;;1.50;1.40;;;;;;;;;;5047065;28;20210;-87
2023/11/29 09:33:42;;;;;;;1.73;1.53;;;;;;;;;;5035708;28;20218;-88
2023/11/29 09:36:10;;;;;;;1.47;1.37;;;;;;;;;;5049104;28;20210;-88
2023/11/29 09:38:38;;;;;;;2.70;1.90;;;;;;;;;;5048563;28;20240;-87
2023/11/29 09:41:06;;;;;;;4.37;3.30;;;;;;;;;;5036004;28;20207;-88
2023/11/29 11:21:21;;;;;;;5.07;4.60;;;;;;;;;;5065371;28;20614;-83
2023/11/29 11:23:48;;;;;;;4.13;3.50;;;;;;;;;;5047100;27;20217;-83
2023/11/29 11:26:15;;;;;;;4.00;3.60;;;;;;;;;;5057416;28;20219;-84
2023/11/29 11:28:43;;;;;;;5.27;3.97;;;;;;;;;;5061087;28;20263;-83
2023/11/29 11:31:11;;;;;;;4.30;3.87;;;;;;;;;;5065252;28;20205;-83
2023/11/29 11:34:12;;;;;;;4.53;3.80;;;;;;;;;;5064776;28;20269;-83
2023/11/29 11:36:40;;;;;;;9.00;3.50;;;;;;;;;;5051459;28;20219;-83
2023/11/29 11:39:10;;;;;;;3.07;2.30;;;;;;;;;;5065127;28;20585;-83
2023/11/29 11:41:36;;;;;;;2.70;1.90;;;;;;;;;;5062661;28;20213;-83
2023/11/29 11:44:03;;;;;;;2.60;2.00;;;;;;;;;;5046340;28;20211;-83
2023/11/29 11:46:31;;;;;;;2.33;1.90;;;;;;;;;;5064853;28;20209;-83
2023/11/29 11:49:01;;;;;;;2.60;2.40;;;;;;;;;;5064513;28;20225;-83
2023/11/29 11:51:28;;;;;;;3.43;2.37;;;;;;;;;;5055828;28;20206;-83
2023/11/29 11:53:58;;;;;;;3.13;2.70;;;;;;;;;;5047554;28;20291;-87
2023/11/29 11:56:25;;;;;;;3.73;2.63;;;;;;;;;;5064864;28;20295;-85
2023/11/29 11:58:52;;;;;;;2.03;1.93;;;;;;;;;;5051156;28;20205;-83
2023/11/29 12:01:19;;;;;;;2.97;2.60;;;;;;;;;;5054255;28;20216;-84
2023/11/29 12:03:49;;;;;;;2.53;2.33;;;;;;;;;;5061909;28;20718;-83
2023/11/29 12:06:16;;;;;;;1.93;1.80;;;;;;;;;;5064394;28;20303;-83
2023/11/29 12:08:43;;;;;;;2.10;1.20;;;;;;;;;;5064100;28;20208;-83
2023/11/29 12:11:13;;;;;;;1.60;1.10;;;;;;;;;;5064109;28;20706;-83
2023/11/29 12:13:41;;;;;;;0.90;0.90;;;;;;;;;;5064080;28;20205;-83
2023/11/29 12:16:14;;;;;;;0.87;0.87;;;;;;;;;;5051932;28;20207;-83
2023/11/29 12:18:40;;;;;;;1.20;1.10;;;;;;;;;;5057622;28;20202;-83
2023/11/29 12:21:08;;;;;;;0.87;0.87;;;;;;;;;;5048382;28;20238;-83
2023/11/29 12:23:35;;;;;;;1.00;0.90;;;;;;;;;;5050329;28;20210;-83
2023/11/29 12:26:02;;;;;;;1.17;1.03;;;;;;;;;;5050414;28;20212;-83
2023/11/29 12:28:32;;;;;;;1.13;1.13;;;;;;;;;;5050618;28;20206;-84
2023/11/29 12:30:59;;;;;;;2.97;1.40;;;;;;;;;;5050471;28;20233;-84
2023/11/29 12:33:26;;;;;;;1.00;1.00;;;;;;;;;;5043965;28;20210;-86
2023/11/29 12:35:53;;;;;;;1.60;1.17;;;;;;;;;;5044018;28;20202;-84
2023/11/29 12:38:20;;;;;;;1.50;1.40;;;;;;;;;;5043501;28;20214;-83
2023/11/29 12:40:48;;;;;;;1.33;1.23;;;;;;;;;;5044307;28;20202;-83
2023/11/29 12:43:14;;;;;;;0.80;0.80;;;;;;;;;;5050632;28;20194;-84
2023/11/29 12:45:43;;;;;;;1.00;1.00;;;;;;;;;;5037351;28;20207;-83
2023/11/29 12:48:12;;;;;;;1.30;1.20;;;;;;;;;;5050152;28;20595;-83
2023/11/29 12:50:39;;;;;;;3.33;1.33;;;;;;;;;;5049801;28;20221;-84
2023/11/29 12:53:07;;;;;;;1.20;1.10;;;;;;;;;;5050360;28;20706;-83
2023/11/29 12:55:33;;;;;;;1.83;1.33;;;;;;;;;;5048514;28;20209;-83
2023/11/29 12:58:00;;;;;;;1.40;1.30;;;;;;;;;;5039494;28;20241;-83
2023/11/29 13:00:27;;;;;;;1.07;1.07;;;;;;;;;;5050230;28;20209;-84
2023/11/29 13:02:55;;;;;;;1.47;1.10;;;;;;;;;;5050335;28;20213;-84
2023/11/29 13:05:22;;;;;;;1.30;1.20;;;;;;;;;;5034393;28;20199;-83
2023/11/29 13:07:49;;;;;;;1.17;1.07;;;;;;;;;;5040510;28;20209;-83
2023/11/29 13:10:16;;;;;;;1.33;0.97;;;;;;;;;;5049537;28;20226;-84
2023/11/29 13:12:42;;;;;;;1.50;1.17;;;;;;;;;;5050220;28;20623;-83
2023/11/29 13:15:10;;;;;;;2.77;2.30;;;;;;;;;;5049858;28;20224;-83
2023/11/29 13:17:37;;;;;;;4.13;3.13;;;;;;;;;;5049781;28;20213;-83
2023/11/29 13:20:08;;;;;;;7.30;2.83;;;;;;;;;;5036053;28;20229;-83
2023/11/29 13:22:35;;;;;;;4.13;3.23;;;;;;;;;;5049730;28;20201;-83
2023/11/29 13:25:02;;;;;;;4.23;3.33;;;;;;;;;;5036752;28;20219;-83
2023/11/29 13:27:28;;;;;;;81.63;43.67;;;;;;;;;;5049651;28;20198;-83
2023/11/29 13:29:55;;;;;;;77.13;41.30;;;;;;;;;;5044880;28;20223;-83
2023/11/29 13:32:22;;;;;;;4.07;3.37;;;;;;;;;;5039932;28;20300;-83
2023/11/29 13:34:49;;;;;;;32.20;17.27;;;;;;;;;;5036062;28;20216;-83
2023/11/29 13:37:17;;;;;;;28.57;16.27;;;;;;;;;;5049627;28;20637;-83
2023/11/29 13:39:44;;;;;;;28.37;14.87;;;;;;;;;;5048411;28;20213;-83
2023/11/29 13:42:11;;;;;;;36.33;19.63;;;;;;;;;;5037445;28;20216;-84
2023/11/29 13:44:38;;;;;;;45.20;25.50;;;;;;;;;;5029750;28;20209;-83
2023/11/29 13:47:05;;;;;;;52.67;30.77;;;;;;;;;;5029884;28;20217;-83
2023/11/29 13:49:33;;;;;;;20.77;13.70;;;;;;;;;;5048056;28;20226;-84
2023/11/29 13:51:59;;;;;;;17.70;12.33;;;;;;;;;;5049383;28;20761;-84
2023/11/29 13:54:28;;;;;;;22.17;16.13;;;;;;;;;;5049448;28;20206;-84
2023/11/29 13:56:54;;;;;;;17.07;11.87;;;;;;;;;;5036188;28;20565;-84
2023/11/29 13:59:21;;;;;;;43.13;30.17;;;;;;;;;;5049006;28;20201;-83
2023/11/29 14:01:48;;;;;;;40.80;27.53;;;;;;;;;;5049276;28;20202;-84
2023/11/29 14:04:15;;;;;;;23.93;15.30;;;;;;;;;;5035926;28;20211;-84
2023/11/29 14:06:42;;;;;;;14.33;8.43;;;;;;;;;;5048487;28;20206;-85
2023/11/29 14:09:09;;;;;;;23.60;15.70;;;;;;;;;;5035846;28;20206;-83
2023/11/29 14:11:39;;;;;;;18.93;15.23;;;;;;;;;;5049109;28;20225;-84
2023/11/29 14:14:06;;;;;;;9.67;8.33;;;;;;;;;;5049256;28;20213;-83
2023/11/29 14:16:33;;;;;;;3.13;2.83;;;;;;;;;;5048805;28;20213;-84
2023/11/29 14:19:00;;;;;;;2.37;2.03;;;;;;;;;;5048984;28;20698;-83
2023/11/29 14:21:27;;;;;;;5.30;2.47;;;;;;;;;;5048905;28;20234;-83
2023/11/29 14:23:54;;;;;;;13.97;7.60;;;;;;;;;;5040753;28;20691;-83
2023/11/29 14:26:21;;;;;;;15.37;9.90;;;;;;;;;;5044123;28;20214;-83
2023/11/29 14:28:49;;;;;;;9.50;7.93;;;;;;;;;;5048762;28;20205;-83
2023/11/29 14:31:16;;;;;;;5.37;2.37;;;;;;;;;;5045858;28;20230;-83
2023/11/29 14:33:43;;;;;;;3.30;2.43;;;;;;;;;;5038196;28;20250;-84
2023/11/29 14:36:10;;;;;;;1.77;1.67;;;;;;;;;;5048448;28;20694;-83
2023/11/29 14:38:37;;;;;;;4.43;3.63;;;;;;;;;;5048570;28;20201;-84
2023/11/29 14:41:04;;;;;;;7.60;5.43;;;;;;;;;;5048278;28;20206;-83
2023/11/29 14:43:32;;;;;;;1.70;1.60;;;;;;;;;;5048654;28;20198;-83
2023/11/29 14:46:00;;;;;;;3.47;2.37;;;;;;;;;;5048337;28;20683;-83
2023/11/29 14:48:27;;;;;;;1.70;1.60;;;;;;;;;;5048257;28;20681;-83
2023/11/29 14:50:54;;;;;;;3.40;2.07;;;;;;;;;;5043187;28;20240;-83
2023/11/29 14:53:20;;;;;;;2.87;2.23;;;;;;;;;;5039763;28;20341;-82
2023/11/29 14:55:47;;;;;;;5.20;4.70;;;;;;;;;;5048006;28;20202;-83
2023/11/29 14:58:14;;;;;;;2.80;2.13;;;;;;;;;;5036606;28;20297;-83
2023/11/29 15:00:41;;;;;;;68.07;51.70;;;;;;;;;;5047234;28;20236;-82
2023/11/29 15:03:10;;;;;;;21.43;18.37;;;;;;;;;;5049036;28;20206;-83
2023/11/29 15:05:37;;;;;;;20.77;17.40;;;;;;;;;;5048368;28;20249;-83
2023/11/29 15:08:04;;;;;;;36.60;24.10;;;;;;;;;;5048560;28;20206;-83
2023/11/29 15:10:31;;;;;;;5.57;4.87;;;;;;;;;;5048481;28;20633;-83
2023/11/29 15:13:01;;;;;;;4.23;3.30;;;;;;;;;;5048199;28;20216;-83
2023/11/29 15:15:28;;;;;;;4.43;3.10;;;;;;;;;;5048363;28;20595;-83
2023/11/29 15:17:55;;;;;;;3.80;2.20;;;;;;;;;;5041369;28;20262;-79
2023/11/29 15:20:23;;;;;;;2.70;2.20;;;;;;;;;;5048487;28;20234;-79
2023/11/29 15:22:51;;;;;;;2.20;2.07;;;;;;;;;;5082814;27;20209;-78
2023/11/29 15:25:19;;;;;;;5.87;4.23;;;;;;;;;;5042698;27;20210;-79
2023/11/29 15:27:46;;;;;;;3.17;2.90;;;;;;;;;;5041203;28;20233;-79
2023/11/29 15:30:14;;;;;;;3.00;2.70;;;;;;;;;;5034795;28;20232;-79
2023/11/29 15:32:40;;;;;;;2.87;2.63;;;;;;;;;;5047038;28;20221;-80
2023/11/29 15:35:09;;;;;;;3.77;3.40;;;;;;;;;;5035709;27;20586;-82
2023/11/29 15:37:38;;;;;;;8.63;7.73;;;;;;;;;;5047157;28;20210;-81
2023/11/29 15:40:06;;;;;;;6.43;5.83;;;;;;;;;;5028097;28;20211;-81
2023/11/29 15:42:33;;;;;;;5.00;4.50;;;;;;;;;;5043025;28;20213;-88
2023/11/29 15:45:00;;;;;;;3.97;3.33;;;;;;;;;;5039064;28;20207;-81
2023/11/29 15:47:26;;;;;;;4.13;3.73;;;;;;;;;;5027874;28;20203;-81
2023/11/29 15:49:53;;;;;;;4.13;3.73;;;;;;;;;;5028831;28;20613;-82
2023/11/29 15:52:20;;;;;;;6.03;3.17;;;;;;;;;;5045479;28;20216;-81
2023/11/29 15:54:48;;;;;;;3.43;3.13;;;;;;;;;;5028126;28;20206;-81
2023/11/29 15:57:15;;;;;;;2.30;2.17;;;;;;;;;;5047414;28;20289;-81
2023/11/29 15:59:42;;;;;;;2.70;2.43;;;;;;;;;;5052532;28;20201;-81
2023/11/29 16:02:10;;;;;;;2.43;2.20;;;;;;;;;;5050712;28;20198;-82
2023/11/29 16:04:37;;;;;;;6.33;5.07;;;;;;;;;;5050652;28;20563;-81
2023/11/29 16:07:10;;;;;;;7.67;6.23;;;;;;;;;;5050488;28;20205;-81
2023/11/29 16:09:36;;;;;;;44.90;31.23;;;;;;;;;;5039382;28;20207;-81
2023/11/29 16:12:07;;;;;;;65.60;50.77;;;;;;;;;;5049382;28;20229;-81
2023/11/29 16:14:34;;;;;;;21.30;19.10;;;;;;;;;;5038225;28;20246;-81
2023/11/29 16:17:01;;;;;;;5.83;5.27;;;;;;;;;;5050292;28;20217;-81